Time;durP1;ratioP1;P1;durP2;ratioP2;P2;SDS_P1;SDS_P2;PMS_P1;PMS_P2;Temp;Humidity;BMP_temperature;BMP_pressure;BME280_temperature;BME280_humidity;BME280_pressure;Samples;Min_cycle;Max_cycle;Signal;HPM_P1;HPM_P2
2023/01/17 00:01:49;;;;;;;14.63;5.13;;;;;;;-146.73;100.00;56421.06;6118387;23;20029;-96
2023/01/17 00:10:57;;;;;;;14.68;5.25;;;;;;;-146.73;100.00;56421.06;6129894;23;20061;-96
2023/01/17 00:13:28;;;;;;;16.67;5.60;;;;;;;-146.73;100.00;56421.06;6105430;23;20084;-96
2023/01/17 00:16:11;;;;;;;15.20;5.97;;;;;;;-146.73;100.00;56421.06;6130048;23;20006;-94
2023/01/17 00:18:36;;;;;;;15.43;5.38;;;;;;;-146.73;100.00;56421.06;6108765;23;20013;-96
2023/01/17 01:34:44;;;;;;;10.50;2.75;;;;;;;-146.73;100.00;56421.06;6156088;23;20076;-94
2023/01/17 01:37:10;;;;;;;10.15;3.10;;;;;;;-146.73;100.00;56421.06;6156461;23;20013;-96
2023/01/17 01:39:35;;;;;;;11.75;3.67;;;;;;;-146.73;100.00;56421.06;6155315;23;20063;-95
2023/01/17 01:42:01;;;;;;;11.82;3.67;;;;;;;-146.73;100.00;56421.06;6155246;23;19998;-95
2023/01/17 01:44:51;;;;;;;12.25;3.50;;;;;;;-146.73;100.00;56421.06;6155011;23;20009;-96
2023/01/17 01:47:27;;;;;;;11.50;3.28;;;;;;;-146.73;100.00;56421.06;6154734;23;20012;-95
2023/01/17 01:49:53;;;;;;;9.70;2.72;;;;;;;-146.73;100.00;56421.06;6154830;23;20049;-95
2023/01/17 01:52:22;;;;;;;9.00;2.70;;;;;;;-146.73;100.00;56421.06;6154831;23;20018;-95
2023/01/17 01:54:51;;;;;;;9.35;2.83;;;;;;;-146.73;100.00;56421.06;6154493;23;20060;-95
2023/01/17 01:57:20;;;;;;;12.68;3.55;;;;;;;-146.73;100.00;56421.06;6154230;23;20017;-96
2023/01/17 02:00:23;;;;;;;9.88;2.80;;;;;;;-146.73;100.00;56421.06;6154933;23;20005;-96
2023/01/17 02:03:14;;;;;;;10.57;2.90;;;;;;;-146.73;100.00;56421.06;6153595;23;20024;-95
2023/01/17 02:05:42;;;;;;;9.18;2.47;;;;;;;-146.73;100.00;56421.06;6153953;23;20041;-96
2023/01/17 02:08:11;;;;;;;9.82;2.30;;;;;;;-146.73;100.00;56421.06;6154330;23;20013;-94
2023/01/17 02:10:39;;;;;;;8.20;2.20;;;;;;;-146.73;100.00;56421.06;6155866;23;20048;-96
2023/01/17 02:13:07;;;;;;;7.18;1.83;;;;;;;-146.73;100.00;56421.06;6152878;23;20028;-96
2023/01/17 02:15:51;;;;;;;7.63;1.95;;;;;;;-146.73;100.00;56421.06;6155371;23;20001;-95
2023/01/17 02:18:33;;;;;;;8.50;2.10;;;;;;;-146.73;100.00;56421.06;6153525;23;20071;-95
2023/01/17 02:21:10;;;;;;;7.20;1.95;;;;;;;-146.73;100.00;56421.06;6153692;23;20012;-95
2023/01/17 02:23:54;;;;;;;10.07;1.98;;;;;;;-146.73;100.00;56421.06;6154447;23;20001;-95
2023/01/17 02:26:58;;;;;;;8.15;2.10;;;;;;;-146.73;100.00;56421.06;6154067;23;20012;-95
2023/01/17 02:30:04;;;;;;;9.20;2.28;;;;;;;-146.73;100.00;56421.06;6154089;23;20088;-96
2023/01/17 02:32:41;;;;;;;7.68;1.75;;;;;;;-146.73;100.00;56421.06;6154420;23;20006;-95
2023/01/17 02:35:28;;;;;;;9.45;2.20;;;;;;;-146.73;100.00;56421.06;6154309;23;20021;-96
2023/01/17 02:38:02;;;;;;;10.90;1.90;;;;;;;-146.73;100.00;56421.06;6153059;23;20006;-95
2023/01/17 02:40:54;;;;;;;6.22;1.63;;;;;;;-146.73;100.00;56421.06;6153845;23;20005;-95
2023/01/17 02:43:23;;;;;;;7.75;1.90;;;;;;;-146.73;100.00;56421.06;6153120;23;20004;-96
2023/01/17 02:45:49;;;;;;;10.65;2.67;;;;;;;-146.73;100.00;56421.06;6154542;23;20025;-95
2023/01/17 02:48:19;;;;;;;10.18;2.70;;;;;;;-146.73;100.00;56421.06;6154269;23;20133;-95
2023/01/17 02:51:07;;;;;;;8.95;2.50;;;;;;;-146.73;100.00;56421.06;6154885;23;20013;-95
2023/01/17 02:53:55;;;;;;;9.13;2.65;;;;;;;-146.73;100.00;56421.06;6154253;23;20010;-95
2023/01/17 02:56:53;;;;;;;9.25;2.40;;;;;;;-146.73;100.00;56421.06;6154261;23;20016;-95
2023/01/17 02:59:54;;;;;;;10.57;2.72;;;;;;;-146.73;100.00;56421.06;6154616;23;20009;-95
2023/01/17 03:02:37;;;;;;;9.10;2.60;;;;;;;-146.73;100.00;56421.06;6128268;23;20021;-90
2023/01/17 03:05:10;;;;;;;11.35;2.60;;;;;;;-146.73;100.00;56421.06;6143421;23;20358;-91
2023/01/17 03:07:38;;;;;;;9.15;2.83;;;;;;;-146.73;100.00;56421.06;6120141;23;20013;-90
2023/01/17 03:10:06;;;;;;;11.30;2.80;;;;;;;-146.73;100.00;56421.06;6122524;23;20009;-93
2023/01/17 03:12:36;;;;;;;8.50;2.63;;;;;;;-146.73;100.00;56421.06;6148778;23;20037;-91
2023/01/17 03:15:01;;;;;;;10.55;3.10;;;;;;;-146.73;100.00;56421.06;6120448;23;20373;-90
2023/01/17 03:17:32;;;;;;;9.50;2.83;;;;;;;-146.73;100.00;56421.06;6121065;23;20092;-93
2023/01/17 03:19:57;;;;;;;9.15;2.65;;;;;;;-146.73;100.00;56421.06;6119586;23;20278;-90
2023/01/17 03:22:23;;;;;;;8.98;2.90;;;;;;;-146.73;100.00;56421.06;6121642;23;20014;-93
2023/01/17 03:24:59;;;;;;;10.23;2.78;;;;;;;-146.73;100.00;56421.06;6122171;23;20068;-91
2023/01/17 03:27:27;;;;;;;11.20;2.80;;;;;;;-146.73;100.00;56421.06;6122691;23;20017;-93
2023/01/17 03:29:56;;;;;;;10.73;2.90;;;;;;;-146.73;100.00;56421.06;6148178;23;20009;-93
2023/01/17 03:32:24;;;;;;;15.18;2.88;;;;;;;-146.73;100.00;56421.06;6123329;23;20109;-91
2023/01/17 03:34:50;;;;;;;12.05;3.33;;;;;;;-146.73;100.00;56421.06;6125056;23;20021;-90
2023/01/17 03:37:15;;;;;;;9.75;2.55;;;;;;;-146.73;100.00;56421.06;6123397;23;20068;-90
2023/01/17 03:39:41;;;;;;;11.10;2.60;;;;;;;-146.73;100.00;56421.06;6149745;23;20013;-90
2023/01/17 03:42:06;;;;;;;11.60;2.85;;;;;;;-146.73;100.00;56421.06;6124078;23;20009;-93
2023/01/17 03:44:33;;;;;;;8.70;2.53;;;;;;;-146.73;100.00;56421.06;6124370;23;20005;-93
2023/01/17 03:47:02;;;;;;;10.13;2.80;;;;;;;-146.73;100.00;56421.06;6124425;23;20347;-90
2023/01/17 03:49:28;;;;;;;10.57;2.65;;;;;;;-146.73;100.00;56421.06;6124275;23;20092;-92
2023/01/17 03:51:53;;;;;;;11.27;3.28;;;;;;;-146.73;100.00;56421.06;6124635;23;20096;-94
2023/01/17 03:54:19;;;;;;;9.73;2.60;;;;;;;-146.73;100.00;56421.06;6149465;23;20149;-90
2023/01/17 03:56:45;;;;;;;10.32;2.38;;;;;;;-146.73;100.00;56421.06;6149055;23;20005;-89
2023/01/17 03:59:10;;;;;;;10.30;2.70;;;;;;;-146.73;100.00;56421.06;6151031;23;20013;-89
2023/01/17 04:01:35;;;;;;;9.18;2.63;;;;;;;-146.73;100.00;56421.06;6149720;23;20435;-90
2023/01/17 04:04:01;;;;;;;10.25;2.80;;;;;;;-146.73;100.00;56421.06;6124040;23;20009;-94
2023/01/17 04:06:27;;;;;;;11.55;3.10;;;;;;;-146.73;100.00;56421.06;6150317;23;20016;-90
2023/01/17 04:08:52;;;;;;;10.18;2.65;;;;;;;-146.73;100.00;56421.06;6124272;23;20017;-91
2023/01/17 04:11:49;;;;;;;14.75;3.50;;;;;;;-146.73;100.00;56421.06;6125305;23;20045;-90
2023/01/17 04:14:19;;;;;;;10.32;2.90;;;;;;;-146.73;100.00;56421.06;6124261;23;20131;-90
2023/01/17 04:16:45;;;;;;;11.82;3.28;;;;;;;-146.73;100.00;56421.06;6150067;23;20440;-89
2023/01/17 04:19:13;;;;;;;7.50;2.38;;;;;;;-146.73;100.00;56421.06;6123554;23;20063;-90
2023/01/17 04:21:39;;;;;;;12.23;3.35;;;;;;;-146.73;100.00;56421.06;6125122;23;20108;-90
2023/01/17 04:24:05;;;;;;;11.40;3.38;;;;;;;-146.73;100.00;56421.06;6126348;23;20041;-92
2023/01/17 04:26:31;;;;;;;10.65;3.17;;;;;;;-146.73;100.00;56421.06;6126251;23;20014;-91
2023/01/17 04:28:57;;;;;;;10.95;3.22;;;;;;;-146.73;100.00;56421.06;6133431;23;20092;-90
2023/01/17 04:31:22;;;;;;;11.18;3.08;;;;;;;-146.73;100.00;56421.06;6136053;23;20079;-90
2023/01/17 04:33:48;;;;;;;10.70;3.42;;;;;;;-146.73;100.00;56421.06;6136139;23;20009;-90
2023/01/17 04:36:14;;;;;;;14.32;3.90;;;;;;;-146.73;100.00;56421.06;6133471;23;20105;-90
2023/01/17 04:38:40;;;;;;;11.00;3.08;;;;;;;-146.73;100.00;56421.06;6163787;23;20072;-89
2023/01/17 04:41:05;;;;;;;10.88;3.10;;;;;;;-146.73;100.00;56421.06;6165633;23;20024;-90
2023/01/17 04:43:31;;;;;;;10.45;2.83;;;;;;;-146.73;100.00;56421.06;6139421;23;20318;-90
2023/01/17 04:45:59;;;;;;;9.93;2.53;;;;;;;-146.73;100.00;56421.06;6135016;23;20009;-90
2023/01/17 04:48:26;;;;;;;9.52;2.58;;;;;;;-146.73;100.00;56421.06;6138989;23;20020;-90
2023/01/17 04:51:03;;;;;;;9.40;2.58;;;;;;;-146.73;100.00;56421.06;6142681;23;20025;-90
2023/01/17 04:53:29;;;;;;;8.90;2.60;;;;;;;-146.73;100.00;56421.06;6143479;23;20005;-91
2023/01/17 04:55:55;;;;;;;9.27;2.65;;;;;;;-146.73;100.00;56421.06;6135298;23;20074;-91
2023/01/17 04:58:33;;;;;;;9.88;2.40;;;;;;;-146.73;100.00;56421.06;6125181;23;20020;-89
2023/01/17 05:01:03;;;;;;;9.65;2.47;;;;;;;-146.73;100.00;56421.06;6125246;23;20018;-91
2023/01/17 05:03:30;;;;;;;9.27;2.75;;;;;;;-146.73;100.00;56421.06;6125245;23;20017;-90
2023/01/17 05:05:55;;;;;;;8.30;1.98;;;;;;;-146.73;100.00;56421.06;6124833;23;20429;-91
2023/01/17 05:08:21;;;;;;;9.13;2.55;;;;;;;-146.73;100.00;56421.06;6124526;23;20018;-90
2023/01/17 05:10:46;;;;;;;9.55;2.70;;;;;;;-146.73;100.00;56421.06;6125199;23;20006;-90
2023/01/17 05:13:13;;;;;;;8.88;2.50;;;;;;;-146.73;100.00;56421.06;6150155;23;20002;-90
2023/01/17 05:15:38;;;;;;;10.98;3.03;;;;;;;-146.73;100.00;56421.06;6150854;23;20017;-91
2023/01/17 05:18:07;;;;;;;9.50;2.72;;;;;;;-146.73;100.00;56421.06;6123483;23;20316;-90
2023/01/17 05:20:35;;;;;;;11.57;3.05;;;;;;;-146.73;100.00;56421.06;6123369;23;20012;-90
2023/01/17 05:23:00;;;;;;;9.48;2.55;;;;;;;-146.73;100.00;56421.06;6123813;23;20017;-90
2023/01/17 05:25:29;;;;;;;10.60;2.92;;;;;;;-146.73;100.00;56421.06;6121846;23;20580;-90
2023/01/17 05:27:55;;;;;;;11.93;2.85;;;;;;;-146.73;100.00;56421.06;6123086;23;20080;-91
2023/01/17 05:30:22;;;;;;;9.50;2.78;;;;;;;-146.73;100.00;56421.06;6149401;23;20008;-88
2023/01/17 05:32:49;;;;;;;9.02;2.53;;;;;;;-146.73;100.00;56421.06;6123194;23;20021;-90
2023/01/17 05:35:18;;;;;;;9.90;2.55;;;;;;;-146.73;100.00;56421.06;6123896;23;20085;-91
2023/01/17 05:37:49;;;;;;;9.98;2.67;;;;;;;-146.73;100.00;56421.06;6148840;23;20033;-90
2023/01/17 05:40:20;;;;;;;10.25;2.88;;;;;;;-146.73;100.00;56421.06;6150253;23;20013;-90
2023/01/17 05:42:46;;;;;;;10.45;2.70;;;;;;;-146.73;100.00;56421.06;6123085;23;20013;-92
2023/01/17 05:45:15;;;;;;;7.47;2.20;;;;;;;-146.73;100.00;56421.06;6149241;23;20077;-89
2023/01/17 05:47:46;;;;;;;10.35;2.60;;;;;;;-146.73;100.00;56421.06;6150705;23;20017;-94
2023/01/17 05:50:15;;;;;;;8.65;2.35;;;;;;;-146.73;100.00;56421.06;6122199;23;20194;-90
2023/01/17 05:52:49;;;;;;;7.97;2.63;;;;;;;-146.73;100.00;56421.06;6123716;23;20195;-90
2023/01/17 05:55:17;;;;;;;8.20;2.22;;;;;;;-146.73;100.00;56421.06;6122713;23;20347;-91
2023/01/17 05:57:43;;;;;;;7.97;2.10;;;;;;;-146.73;100.00;56421.06;6121845;23;20620;-90
2023/01/17 06:00:09;;;;;;;10.18;3.20;;;;;;;-146.73;100.00;56421.06;6123498;23;20009;-93
2023/01/17 06:02:35;;;;;;;8.82;2.53;;;;;;;-146.73;100.00;56421.06;6121812;23;20009;-93
2023/01/17 06:05:00;;;;;;;7.93;2.45;;;;;;;-146.73;100.00;56421.06;6147607;23;20085;-91
2023/01/17 06:07:26;;;;;;;9.30;2.45;;;;;;;-146.73;100.00;56421.06;6121399;23;20021;-91
2023/01/17 06:09:52;;;;;;;12.48;2.67;;;;;;;-146.73;100.00;56421.06;6122445;23;20005;-91
2023/01/17 06:12:17;;;;;;;9.98;2.30;;;;;;;-146.73;100.00;56421.06;6123047;23;20084;-93
2023/01/17 06:14:45;;;;;;;10.05;2.47;;;;;;;-146.73;100.00;56421.06;6122139;23;20022;-89
2023/01/17 06:17:11;;;;;;;47.35;6.30;;;;;;;-146.73;100.00;56421.06;6121119;23;20395;-89
2023/01/17 06:19:44;;;;;;;11.60;2.67;;;;;;;-146.73;100.00;56421.06;6121607;23;20009;-93
2023/01/17 06:22:10;;;;;;;9.60;2.55;;;;;;;-146.73;100.00;56421.06;6148889;23;20010;-92
2023/01/17 06:25:34;;;;;;;10.15;2.75;;;;;;;-146.73;100.00;56421.06;6122643;23;20903;-91
2023/01/17 06:28:00;;;;;;;15.20;3.00;;;;;;;-146.73;100.00;56421.06;6123049;23;20014;-90
2023/01/17 06:30:26;;;;;;;9.00;2.33;;;;;;;-146.73;100.00;56421.06;6121680;23;20017;-92
2023/01/17 06:32:53;;;;;;;10.02;2.13;;;;;;;-146.73;100.00;56421.06;6148035;23;20412;-92
2023/01/17 06:35:21;;;;;;;7.75;2.03;;;;;;;-146.73;100.00;56421.06;6147958;23;19997;-91
2023/01/17 06:37:51;;;;;;;7.47;2.10;;;;;;;-146.73;100.00;56421.06;6145177;23;20014;-90
2023/01/17 06:40:31;;;;;;;7.40;1.90;;;;;;;-146.73;100.00;56421.06;6147005;23;20080;-90
2023/01/17 06:43:04;;;;;;;10.10;2.30;;;;;;;-146.73;100.00;56421.06;6121278;23;20088;-91
2023/01/17 06:46:02;;;;;;;8.77;2.33;;;;;;;-146.73;100.00;56421.06;6122382;23;20019;-90
2023/01/17 06:48:27;;;;;;;9.52;2.30;;;;;;;-146.73;100.00;56421.06;6120380;23;20037;-90
2023/01/17 06:50:53;;;;;;;9.15;2.13;;;;;;;-146.73;100.00;56421.06;6121342;23;20017;-91
2023/01/17 06:53:18;;;;;;;9.63;2.78;;;;;;;-146.73;100.00;56421.06;6144820;23;20021;-91
2023/01/17 06:55:44;;;;;;;9.13;2.53;;;;;;;-146.73;100.00;56421.06;6121294;23;20001;-90
2023/01/17 06:58:12;;;;;;;8.10;2.25;;;;;;;-146.73;100.00;56421.06;6120374;23;20036;-90
2023/01/17 07:00:39;;;;;;;9.93;2.40;;;;;;;-146.73;100.00;56421.06;6120970;23;20443;-93
2023/01/17 07:03:16;;;;;;;9.07;2.92;;;;;;;-146.73;100.00;56421.06;6096254;23;1225023;-90
2023/01/17 07:05:41;;;;;;;9.82;2.10;;;;;;;-146.73;100.00;56421.06;6124834;23;20253;-90
2023/01/17 07:08:07;;;;;;;9.82;2.45;;;;;;;-146.73;100.00;56421.06;6124735;23;20403;-92
2023/01/17 07:10:32;;;;;;;9.15;2.13;;;;;;;-146.73;100.00;56421.06;6124637;23;20009;-91
2023/01/17 07:12:59;;;;;;;7.22;1.92;;;;;;;-146.73;100.00;56421.06;6124956;23;20009;-92
2023/01/17 07:15:25;;;;;;;10.48;2.33;;;;;;;-146.73;100.00;56421.06;6125589;23;20049;-93
2023/01/17 07:17:59;;;;;;;7.18;2.30;;;;;;;-146.73;100.00;56421.06;6125818;23;20013;-91
2023/01/17 07:20:27;;;;;;;8.30;2.10;;;;;;;-146.73;100.00;56421.06;6152400;23;20009;-92
2023/01/17 07:22:53;;;;;;;10.90;2.30;;;;;;;-146.73;100.00;56421.06;6151447;23;20100;-90
2023/01/17 07:25:19;;;;;;;9.05;2.30;;;;;;;-146.73;100.00;56421.06;6125062;23;20041;-88
2023/01/17 07:27:45;;;;;;;9.07;2.55;;;;;;;-146.73;100.00;56421.06;6125974;23;20016;-90
2023/01/17 07:30:14;;;;;;;10.50;3.03;;;;;;;-146.73;100.00;56421.06;6151817;23;20001;-91
2023/01/17 07:32:40;;;;;;;85.90;6.97;;;;;;;-146.73;100.00;56421.06;6124438;23;20014;-91
2023/01/17 07:35:06;;;;;;;10.85;2.65;;;;;;;-146.73;100.00;56421.06;6124998;23;20029;-91
2023/01/17 07:37:31;;;;;;;9.20;2.67;;;;;;;-146.73;100.00;56421.06;6124464;23;20084;-91
2023/01/17 07:39:57;;;;;;;10.98;2.58;;;;;;;-146.73;100.00;56421.06;6123134;23;20096;-91
2023/01/17 07:42:22;;;;;;;10.57;2.63;;;;;;;-146.73;100.00;56421.06;6124246;23;20010;-91
2023/01/17 07:44:48;;;;;;;11.18;3.05;;;;;;;-146.73;100.00;56421.06;6125069;23;20016;-91
2023/01/17 07:47:16;;;;;;;11.25;3.20;;;;;;;-146.73;100.00;56421.06;6150829;23;20096;-90
2023/01/17 07:49:44;;;;;;;10.43;2.92;;;;;;;-146.73;100.00;56421.06;6124080;23;20141;-90
2023/01/17 07:52:09;;;;;;;9.68;3.05;;;;;;;-146.73;100.00;56421.06;6124845;23;20013;-90
2023/01/17 07:54:35;;;;;;;11.88;3.00;;;;;;;-146.73;100.00;56421.06;6124880;23;20080;-91
2023/01/17 07:57:01;;;;;;;10.82;2.45;;;;;;;-146.73;100.00;56421.06;6125308;23;20423;-91
2023/01/17 07:59:26;;;;;;;11.32;3.17;;;;;;;-146.73;100.00;56421.06;6151327;23;20001;-91
2023/01/17 08:01:52;;;;;;;12.73;2.80;;;;;;;-146.73;100.00;56421.06;6124992;23;20005;-91
2023/01/17 08:04:33;;;;;;;11.48;2.58;;;;;;;-146.73;100.00;56421.06;6121600;23;20471;-90
2023/01/17 08:07:02;;;;;;;9.40;2.63;;;;;;;-146.73;100.00;56421.06;6121900;23;20396;-91
2023/01/17 08:09:30;;;;;;;10.52;3.15;;;;;;;-146.73;100.00;56421.06;6123337;23;20148;-89
2023/01/17 08:11:55;;;;;;;11.43;2.88;;;;;;;-146.73;100.00;56421.06;6123401;23;20337;-89
2023/01/17 08:14:24;;;;;;;12.77;3.42;;;;;;;-146.73;100.00;56421.06;6150856;23;20011;-91
2023/01/17 08:16:50;;;;;;;10.57;3.45;;;;;;;-146.73;100.00;56421.06;6123650;23;20016;-90
2023/01/17 08:19:16;;;;;;;10.77;3.10;;;;;;;-146.73;100.00;56421.06;6124645;23;20009;-90
2023/01/17 08:21:44;;;;;;;12.27;3.05;;;;;;;-146.73;100.00;56421.06;6122562;23;20140;-89
2023/01/17 08:24:19;;;;;;;11.38;3.22;;;;;;;-146.73;100.00;56421.06;6121115;23;20013;-90
2023/01/17 08:26:55;;;;;;;14.75;3.50;;;;;;;-146.73;100.00;56421.06;6120141;23;20451;-92
2023/01/17 08:29:24;;;;;;;9.65;3.17;;;;;;;-146.73;100.00;56421.06;6119527;23;20543;-92
2023/01/17 08:31:53;;;;;;;9.55;2.88;;;;;;;-146.73;100.00;56421.06;6141106;23;20908;-92
2023/01/17 08:34:18;;;;;;;14.80;3.40;;;;;;;-146.73;100.00;56421.06;6145531;23;20019;-91
2023/01/17 08:36:48;;;;;;;10.00;2.90;;;;;;;-146.73;100.00;56421.06;6119892;23;20112;-90
2023/01/17 08:39:17;;;;;;;13.00;2.83;;;;;;;-146.73;100.00;56421.06;6122229;23;20017;-91
2023/01/17 08:41:56;;;;;;;9.40;2.72;;;;;;;-146.73;100.00;56421.06;6123397;23;20095;-90
2023/01/17 08:44:22;;;;;;;14.13;3.03;;;;;;;-146.73;100.00;56421.06;6123580;23;20331;-91
2023/01/17 08:46:48;;;;;;;9.63;2.38;;;;;;;-146.73;100.00;56421.06;6125275;23;20010;-90
2023/01/17 08:49:13;;;;;;;10.43;2.45;;;;;;;-146.73;100.00;56421.06;6147699;23;20470;-90
2023/01/17 08:51:41;;;;;;;8.65;2.55;;;;;;;-146.73;100.00;56421.06;6121367;23;20009;-90
2023/01/17 08:54:08;;;;;;;9.27;2.50;;;;;;;-146.73;100.00;56421.06;6125990;23;20069;-92
2023/01/17 08:56:34;;;;;;;13.10;2.95;;;;;;;-146.73;100.00;56421.06;6123725;23;20076;-92
2023/01/17 08:59:01;;;;;;;9.65;2.70;;;;;;;-146.73;100.00;56421.06;6148332;23;20005;-91
2023/01/17 09:01:27;;;;;;;14.50;2.97;;;;;;;-146.73;100.00;56421.06;6147360;23;20121;-90
2023/01/17 09:03:52;;;;;;;11.18;2.67;;;;;;;-146.73;100.00;56421.06;6117050;23;20531;-90
2023/01/17 09:06:18;;;;;;;9.85;3.08;;;;;;;-146.73;100.00;56421.06;6114572;23;20041;-90
2023/01/17 09:08:48;;;;;;;11.85;2.80;;;;;;;-146.73;100.00;56421.06;6115650;23;20013;-89
2023/01/17 09:11:18;;;;;;;11.70;2.90;;;;;;;-146.73;100.00;56421.06;6143617;23;20104;-91
2023/01/17 09:13:44;;;;;;;12.25;3.25;;;;;;;-146.73;100.00;56421.06;6116483;23;20374;-92
2023/01/17 09:16:20;;;;;;;15.63;3.80;;;;;;;-146.73;100.00;56421.06;6141493;23;20013;-91
2023/01/17 09:18:49;;;;;;;11.70;3.33;;;;;;;-146.73;100.00;56421.06;6144713;23;20009;-91
2023/01/17 09:21:19;;;;;;;10.48;2.85;;;;;;;-146.73;100.00;56421.06;6146528;23;20015;-91
2023/01/17 09:24:05;;;;;;;14.40;3.58;;;;;;;-146.73;100.00;56421.06;6119896;23;20086;-92
2023/01/17 09:26:35;;;;;;;11.90;3.50;;;;;;;-146.73;100.00;56421.06;6122995;23;20033;-92
2023/01/17 09:29:07;;;;;;;12.80;4.22;;;;;;;-146.73;100.00;56421.06;6120898;23;20347;-90
2023/01/17 09:32:03;;;;;;;15.52;4.30;;;;;;;-146.73;100.00;56421.06;6117918;23;20104;-91
2023/01/17 09:34:33;;;;;;;14.77;4.15;;;;;;;-146.73;100.00;56421.06;6146245;23;20009;-91
2023/01/17 09:37:09;;;;;;;14.02;4.22;;;;;;;-146.73;100.00;56421.06;6148338;23;20215;-91
2023/01/17 09:39:50;;;;;;;11.52;3.92;;;;;;;-146.73;100.00;56421.06;6120797;23;20006;-91
2023/01/17 09:42:39;;;;;;;12.02;3.00;;;;;;;-146.73;100.00;56421.06;6119885;23;20009;-91
2023/01/17 09:45:29;;;;;;;12.15;3.08;;;;;;;-146.73;100.00;56421.06;6121826;23;20059;-91
2023/01/17 09:48:26;;;;;;;10.57;3.22;;;;;;;-146.73;100.00;56421.06;6122944;23;20150;-91
2023/01/17 09:51:10;;;;;;;11.95;2.95;;;;;;;-146.73;100.00;56421.06;6120047;23;20009;-90
2023/01/17 09:53:42;;;;;;;11.35;3.15;;;;;;;-146.73;100.00;56421.06;6120129;23;20029;-90
2023/01/17 09:56:28;;;;;;;13.10;3.55;;;;;;;-146.73;100.00;56421.06;6118988;23;20009;-90
2023/01/17 10:02:27;;;;;;;9.95;2.83;;;;;;;-146.73;100.00;56421.06;6146037;23;20009;-91
2023/01/17 10:05:19;;;;;;;7.95;2.28;;;;;;;-146.73;100.00;56421.06;6122111;23;20048;-92
2023/01/17 10:08:25;;;;;;;8.95;2.53;;;;;;;-146.73;100.00;56421.06;6121054;23;20009;-90
2023/01/17 10:11:11;;;;;;;10.05;2.50;;;;;;;-146.73;100.00;56421.06;6121316;23;20005;-91
2023/01/17 10:14:37;;;;;;;;;;;;;;;;;;;;;
2023/01/17 10:17:45;;;;;;;11.68;2.67;;;;;;;-146.73;100.00;56421.06;6027552;23;20021;-94
2023/01/17 10:20:32;;;;;;;9.93;2.53;;;;;;;-146.73;100.00;56421.06;5997059;23;20943;-91
2023/01/17 10:23:32;;;;;;;10.40;2.70;;;;;;;-146.73;100.00;56421.06;6000486;23;20019;-94
2023/01/17 10:26:15;;;;;;;9.55;2.63;;;;;;;-146.73;100.00;56421.06;6125861;23;20431;-94
2023/01/17 10:28:47;;;;;;;7.80;2.38;;;;;;;-146.73;100.00;56421.06;6120314;23;20149;-90
2023/01/17 10:31:54;;;;;;;8.35;2.40;;;;;;;-146.73;100.00;56421.06;6146601;23;20001;-90
2023/01/17 10:34:34;;;;;;;9.55;2.25;;;;;;;-146.73;100.00;56421.06;6138003;23;20382;-91
2023/01/17 10:37:23;;;;;;;8.32;2.33;;;;;;;-146.73;100.00;56421.06;6120688;23;20025;-91
2023/01/17 10:39:55;;;;;;;10.60;2.50;;;;;;;-146.73;100.00;56421.06;6147118;23;20009;-91
2023/01/17 10:42:34;;;;;;;9.30;2.40;;;;;;;-146.73;100.00;56421.06;6122227;23;20005;-89
2023/01/17 10:45:17;;;;;;;9.20;2.75;;;;;;;-146.73;100.00;56421.06;6119586;23;20009;-89
2023/01/17 10:47:55;;;;;;;10.20;2.25;;;;;;;-146.73;100.00;56421.06;6115846;23;20431;-90
2023/01/17 10:50:27;;;;;;;9.02;2.50;;;;;;;-146.73;100.00;56421.06;6146202;23;20013;-92
2023/01/17 10:53:15;;;;;;;10.45;2.42;;;;;;;-146.73;100.00;56421.06;6121672;23;20157;-90
2023/01/17 10:55:57;;;;;;;8.18;2.28;;;;;;;-146.73;100.00;56421.06;6120682;23;20067;-93
2023/01/17 10:58:28;;;;;;;8.45;2.42;;;;;;;-146.73;100.00;56421.06;6119480;23;20002;-91
2023/01/17 11:08:12;;;;;;;9.73;3.60;;;;;;;-146.73;100.00;56421.06;6149216;23;20035;-91
2023/01/17 11:11:05;;;;;;;10.38;3.17;;;;;;;-146.73;100.00;56421.06;6123401;23;20097;-91
2023/01/17 11:13:46;;;;;;;10.40;3.45;;;;;;;-146.73;100.00;56421.06;6124918;23;20016;-91
2023/01/17 11:17:18;;;;;;;11.93;3.83;;;;;;;-146.73;100.00;56421.06;6124681;23;20626;-91
2023/01/17 11:19:50;;;;;;;23.42;3.83;;;;;;;-146.73;100.00;56421.06;6117961;23;20017;-91
2023/01/17 11:22:18;;;;;;;9.88;2.92;;;;;;;-146.73;100.00;56421.06;6122807;23;20009;-91
2023/01/17 11:25:02;;;;;;;11.18;2.97;;;;;;;-146.73;100.00;56421.06;6150084;23;20036;-92
2023/01/17 11:31:38;;;;;;;9.98;3.20;;;;;;;-146.73;100.00;56421.06;6134142;23;20269;-91
2023/01/17 11:38:10;;;;;;;9.95;3.13;;;;;;;-146.73;100.00;56421.06;6159752;23;20040;-92
2023/01/17 11:40:48;;;;;;;9.80;2.88;;;;;;;-146.73;100.00;56421.06;6138377;23;20009;-94
2023/01/17 11:44:20;;;;;;;9.38;3.10;;;;;;;-146.73;100.00;56421.06;6140619;23;20393;-94
2023/01/17 11:47:14;;;;;;;16.48;3.65;;;;;;;-146.73;100.00;56421.06;6119952;23;20088;-91
2023/01/17 11:49:47;;;;;;;9.65;3.13;;;;;;;-146.73;100.00;56421.06;6155590;23;20014;-93
2023/01/17 11:52:37;;;;;;;;;;;;;;;-146.73;100.00;56421.06;6127326;23;20009;-92
2023/01/17 11:55:31;;;;;;;9.57;2.88;;;;;;;-146.73;100.00;56421.06;6129423;23;19909;-91
2023/01/17 11:57:57;;;;;;;9.65;2.63;;;;;;;-146.73;100.00;56421.06;6132601;23;20072;-93
2023/01/17 12:00:56;;;;;;;10.35;3.10;;;;;;;-146.73;100.00;56421.06;6135033;23;20029;-90
2023/01/17 12:03:39;;;;;;;9.25;2.88;;;;;;;-146.73;100.00;56421.06;6135617;23;20012;-91
2023/01/17 12:06:54;;;;;;;12.63;3.08;;;;;;;-146.73;100.00;56421.06;6153102;23;20039;-92
2023/01/17 12:09:29;;;;;;;9.25;2.80;;;;;;;-146.73;100.00;56421.06;6019883;23;20109;-91
2023/01/17 12:15:29;;;;;;;9.10;2.85;;;;;;;-146.73;100.00;56421.06;6161652;23;20016;-92
2023/01/17 12:18:18;;;;;;;11.35;3.10;;;;;;;-146.73;100.00;56421.06;6137488;23;20005;-92
2023/01/17 12:21:02;;;;;;;9.63;2.70;;;;;;;-146.73;100.00;56421.06;6159299;23;20014;-92
2023/01/17 12:24:03;;;;;;;12.27;3.08;;;;;;;-146.73;100.00;56421.06;6132513;23;20408;-95
2023/01/17 12:26:33;;;;;;;17.83;3.10;;;;;;;-146.73;100.00;56421.06;6105903;23;20040;-92
2023/01/17 12:29:21;;;;;;;13.70;3.53;;;;;;;-146.73;100.00;56421.06;6132595;23;20013;-92
2023/01/17 12:32:15;;;;;;;9.57;2.75;;;;;;;-146.73;100.00;56421.06;6125655;23;20801;-93
2023/01/17 12:35:37;;;;;;;9.10;2.30;;;;;;;-146.73;100.00;56421.06;6124388;23;20029;-96
2023/01/17 12:38:27;;;;;;;9.55;2.58;;;;;;;-146.73;100.00;56421.06;6130637;23;20439;-92
2023/01/17 13:11:53;;;;;;;11.32;3.08;;;;;;;-146.73;100.00;56421.06;6120065;23;20025;-93
2023/01/17 13:22:37;;;;;;;12.48;2.90;;;;;;;-146.73;100.00;56421.06;5910376;24;20009;-93
2023/01/17 13:42:54;;;;;;;10.43;3.58;;;;;;;-146.73;100.00;56421.06;5833234;24;20024;-94
2023/01/17 13:46:17;;;;;;;11.15;3.60;;;;;;;-146.73;100.00;56421.06;5843410;24;20070;-95
2023/01/17 13:56:32;;;;;;;10.02;2.70;;;;;;;-146.73;100.00;56421.06;5966772;23;20012;-94
2023/01/17 14:00:20;;;;;;;8.80;2.33;;;;;;;-146.73;100.00;56421.06;5981292;23;20007;-95
2023/01/17 14:07:26;;;;;;;;;;;;;;;;;;;;;
2023/01/17 15:29:47;;;;;;;11.50;3.58;;;;;;;-146.73;100.00;56421.06;6177525;23;20952;31
2023/01/17 15:33:08;;;;;;;11.88;3.58;;;;;;;-146.73;100.00;56421.06;6120231;23;20037;-91
2023/01/17 15:39:33;;;;;;;11.50;3.03;;;;;;;-146.73;100.00;56421.06;6115346;23;20114;-91
2023/01/17 16:52:40;;;;;;;;;;;;;;;;;;;;;
2023/01/17 16:55:12;;;;;;;10.85;2.85;;;;;;;-146.73;100.00;56421.06;6071752;23;20044;-91
2023/01/17 16:57:38;;;;;;;7.90;2.63;;;;;;;-146.73;100.00;56421.06;6063458;23;20329;-91
2023/01/17 17:51:09;;;;;;;9.32;2.35;;;;;;;-146.73;100.00;56421.06;6207152;23;20035;-95
2023/01/17 17:57:29;;;;;;;9.18;2.70;;;;;;;-146.73;100.00;56421.06;6205793;22;20379;31
2023/01/17 18:03:04;;;;;;;8.07;2.50;;;;;;;-146.73;100.00;56421.06;6209135;23;20019;-94
2023/01/17 18:05:33;;;;;;;10.10;3.00;;;;;;;-146.73;100.00;56421.06;6208969;23;20830;-94
2023/01/17 18:07:59;;;;;;;9.27;2.75;;;;;;;-146.73;100.00;56421.06;6207475;23;20047;-93